Time;durP1;ratioP1;P1;durP2;ratioP2;P2;SDS_P1;SDS_P2;PMS_P1;PMS_P2;Temp;Humidity;BMP_temperature;BMP_pressure;BME280_temperature;BME280_humidity;BME280_pressure;Samples;Min_cycle;Max_cycle;Signal;HPM_P1;HPM_P2
2021/12/05 00:24:42;;;;;;;25.27;10.93;;;4.70;99.90;;;;;;5113389;28;20089;-61
2021/12/05 00:27:22;;;;;;;28.48;11.25;;;4.80;99.90;;;;;;5128888;27;20075;-61
2021/12/05 00:32:48;;;;;;;20.45;9.63;;;4.80;99.90;;;;;;5113238;28;20427;-61
2021/12/05 00:54:41;;;;;;;12.05;6.55;;;4.70;99.90;;;;;;5112699;28;20416;-60
2021/12/05 01:04:41;;;;;;;14.98;7.05;;;4.70;99.90;;;;;;5112252;28;20101;-61
2021/12/05 01:17:29;;;;;;;17.05;6.28;;;4.60;99.90;;;;;;5112287;28;20104;-61
2021/12/05 01:19:55;;;;;;;15.27;6.10;;;4.60;99.90;;;;;;5111996;28;20051;-61
2021/12/05 01:22:23;;;;;;;12.88;6.40;;;4.60;99.90;;;;;;5112419;28;20044;-61
2021/12/05 01:24:59;;;;;;;13.20;6.28;;;4.70;99.90;;;;;;5111310;28;20400;-61
2021/12/05 01:27:43;;;;;;;13.00;6.60;;;4.50;99.90;;;;;;5126651;27;20506;-60
2021/12/05 01:30:41;;;;;;;16.30;6.93;;;4.60;99.90;;;;;;5111998;28;20051;-61
2021/12/05 01:33:21;;;;;;;12.18;5.53;;;4.50;99.90;;;;;;5111135;28;20104;-61
2021/12/05 01:59:31;;;;;;;12.77;5.80;;;4.40;99.90;;;;;;5115723;28;20059;-61
2021/12/05 02:10:43;;;;;;;15.85;5.30;;;4.30;99.90;;;;;;5115935;28;20409;-60
2021/12/05 02:34:44;;;;;;;14.18;6.65;;;4.30;99.90;;;;;;5115574;28;20077;-62
2021/12/05 02:37:19;;;;;;;9.60;6.20;;;4.30;99.90;;;;;;5113984;28;20047;-61
2021/12/05 02:40:18;;;;;;;12.63;5.90;;;4.30;99.90;;;;;;5115345;28;20113;-61
2021/12/05 02:43:24;;;;;;;12.65;6.00;;;4.30;99.90;;;;;;5114830;28;20196;-61
2021/12/05 02:45:38;;;;;;;13.95;6.53;;;4.30;99.90;;;;;;5112841;28;20079;-61
2021/12/05 02:48:05;;;;;;;12.63;6.32;;;4.30;99.90;;;;;;5112877;28;20124;-65
2021/12/05 02:50:34;;;;;;;13.60;6.65;;;4.30;99.90;;;;;;5113822;28;20094;-64
2021/12/05 02:53:11;;;;;;;16.30;6.85;;;4.30;99.90;;;;;;5113737;28;20101;-65
2021/12/05 02:55:41;;;;;;;13.13;7.35;;;4.20;99.90;;;;;;5114882;28;20051;-64
2021/12/05 02:58:45;;;;;;;18.27;6.88;;;4.30;99.90;;;;;;5113796;28;20098;-64
2021/12/05 03:03:35;;;;;;;14.75;7.30;;;4.30;99.90;;;;;;5114600;28;20061;-64
2021/12/05 03:06:16;;;;;;;14.02;7.10;;;4.30;99.90;;;;;;5114576;28;20442;-64
2021/12/05 03:08:43;;;;;;;12.38;5.68;;;4.30;99.90;;;;;;5114678;27;20047;-63
2021/12/05 03:11:09;;;;;;;12.30;6.43;;;4.30;99.90;;;;;;5113135;28;20123;-63
2021/12/05 03:13:37;;;;;;;14.48;7.40;;;4.30;99.90;;;;;;5114480;28;20130;-65
2021/12/05 03:16:03;;;;;;;14.70;6.60;;;4.30;99.90;;;;;;5114431;28;20069;-63
2021/12/05 03:18:29;;;;;;;14.75;7.03;;;4.30;99.90;;;;;;5113725;27;20450;-63
2021/12/05 03:20:58;;;;;;;12.63;6.15;;;4.30;99.90;;;;;;5113269;28;20040;-65
2021/12/05 03:23:25;;;;;;;15.13;6.35;;;4.30;99.90;;;;;;5112857;28;20044;-63
2021/12/05 03:25:51;;;;;;;13.15;5.68;;;4.30;99.90;;;;;;5129726;27;20065;-65
2021/12/05 03:28:16;;;;;;;12.32;6.57;;;4.30;99.90;;;;;;5129735;27;20035;-64
2021/12/05 03:30:42;;;;;;;14.38;6.40;;;4.30;99.90;;;;;;5129919;27;20534;-63
2021/12/05 03:33:08;;;;;;;14.30;7.13;;;4.20;99.90;;;;;;5112512;28;20048;-69
2021/12/05 03:35:34;;;;;;;12.63;7.00;;;4.30;99.90;;;;;;5129840;27;20044;-64
2021/12/05 03:38:00;;;;;;;15.25;7.45;;;4.30;99.90;;;;;;5129863;27;20043;-65
2021/12/05 03:40:29;;;;;;;17.60;7.78;;;4.30;99.90;;;;;;5112533;28;20237;-64
2021/12/05 03:42:56;;;;;;;13.10;6.32;;;4.30;99.90;;;;;;5113868;28;20390;-65
2021/12/05 03:45:30;;;;;;;15.52;7.28;;;4.30;99.90;;;;;;5113599;28;20047;-64
2021/12/05 03:47:56;;;;;;;14.48;7.00;;;4.30;99.90;;;;;;5113981;28;20290;-63
2021/12/05 03:50:24;;;;;;;13.30;7.35;;;4.20;99.90;;;;;;5113337;28;20043;-64
2021/12/05 03:52:50;;;;;;;12.27;6.65;;;4.20;99.90;;;;;;5112555;28;20096;-64
2021/12/05 03:55:17;;;;;;;21.85;8.85;;;4.20;99.90;;;;;;5112183;28;20493;-63
2021/12/05 03:57:43;;;;;;;13.68;7.30;;;4.20;99.90;;;;;;5113515;28;20055;-64
2021/12/05 04:00:14;;;;;;;21.13;7.85;;;4.30;99.90;;;;;;5112273;28;20058;-64
2021/12/05 04:02:40;;;;;;;20.42;8.50;;;4.20;99.90;;;;;;5113099;28;20573;-64
2021/12/05 04:05:06;;;;;;;16.52;7.75;;;4.20;99.90;;;;;;5113377;27;20086;-63
2021/12/05 04:07:32;;;;;;;13.48;7.60;;;4.20;99.90;;;;;;5113086;28;20295;-63
2021/12/05 04:09:57;;;;;;;15.57;7.85;;;4.20;99.90;;;;;;5129144;27;20054;-64
2021/12/05 04:12:23;;;;;;;17.13;8.18;;;4.20;99.90;;;;;;5128894;27;20089;-65
2021/12/05 04:14:54;;;;;;;14.50;7.65;;;4.20;99.90;;;;;;5112513;28;20341;-63
2021/12/05 04:17:21;;;;;;;17.58;8.43;;;4.20;99.90;;;;;;5127696;27;20040;-64
2021/12/05 04:19:47;;;;;;;14.10;7.32;;;4.20;99.90;;;;;;5112030;28;20053;-66
2021/12/05 04:22:13;;;;;;;18.95;8.98;;;4.20;99.90;;;;;;5113040;28;20096;-63
2021/12/05 04:24:39;;;;;;;14.60;8.25;;;4.20;99.90;;;;;;5112348;28;20051;-64
2021/12/05 04:27:05;;;;;;;19.77;8.65;;;4.10;99.90;;;;;;5112539;28;20501;-63
2021/12/05 04:29:33;;;;;;;18.25;8.95;;;4.10;99.90;;;;;;5112607;28;20130;-63
2021/12/05 04:32:00;;;;;;;15.23;9.13;;;4.10;99.90;;;;;;5111470;28;20057;-64
2021/12/05 04:34:25;;;;;;;23.75;10.52;;;4.10;99.90;;;;;;5128522;27;20051;-64
2021/12/05 04:36:56;;;;;;;28.35;10.25;;;4.10;99.90;;;;;;5112774;28;20044;-63
2021/12/05 04:39:23;;;;;;;15.90;9.60;;;4.00;99.90;;;;;;5095232;28;20488;-64
2021/12/05 04:41:49;;;;;;;21.13;9.82;;;4.00;99.90;;;;;;5112513;28;20062;-63
2021/12/05 04:44:15;;;;;;;20.98;9.40;;;4.00;99.90;;;;;;5111646;28;20182;-64
2021/12/05 04:46:41;;;;;;;25.42;9.30;;;4.00;99.90;;;;;;5111178;28;20051;-64
2021/12/05 04:49:07;;;;;;;25.30;10.55;;;4.00;99.90;;;;;;5111096;28;20058;-63
2021/12/05 04:51:38;;;;;;;21.80;10.25;;;4.00;99.90;;;;;;5112219;28;20043;-65
2021/12/05 04:54:07;;;;;;;21.50;10.52;;;4.00;99.90;;;;;;5094445;28;20138;-65
2021/12/05 04:56:33;;;;;;;19.75;10.27;;;4.00;99.90;;;;;;5110661;28;20048;-65
2021/12/05 04:59:00;;;;;;;23.13;9.75;;;4.00;99.90;;;;;;5094157;28;20316;-64
2021/12/05 05:01:27;;;;;;;23.85;10.95;;;4.00;99.90;;;;;;5110873;28;20043;-63
2021/12/05 05:03:54;;;;;;;17.67;9.40;;;4.00;99.90;;;;;;5112628;28;20047;-64
2021/12/05 05:06:21;;;;;;;23.58;10.57;;;4.00;99.90;;;;;;5112275;28;20047;-63
2021/12/05 05:08:50;;;;;;;21.13;9.45;;;4.00;99.90;;;;;;5112380;28;20052;-63
2021/12/05 05:11:19;;;;;;;21.35;10.35;;;4.00;99.90;;;;;;5111358;28;20122;-64
2021/12/05 05:13:47;;;;;;;26.08;11.02;;;4.10;99.90;;;;;;5111867;28;20043;-64
2021/12/05 05:16:15;;;;;;;19.30;10.30;;;4.00;99.90;;;;;;5111079;28;20093;-65
2021/12/05 05:49:59;;;;;;;22.05;10.40;;;4.00;99.90;;;;;;5111686;28;20096;-64
2021/12/05 05:52:27;;;;;;;24.98;9.30;;;4.10;99.90;;;;;;5110529;28;20055;-63
2021/12/05 05:54:55;;;;;;;23.98;9.88;;;4.10;99.90;;;;;;5110921;28;20055;-64
2021/12/05 05:57:27;;;;;;;20.48;9.20;;;4.00;99.90;;;;;;5110063;28;20386;-63
2021/12/05 06:05:07;;;;;;;19.80;10.48;;;4.20;99.90;;;;;;5111820;28;20047;-63
2021/12/05 06:07:40;;;;;;;22.48;9.40;;;4.00;99.90;;;;;;5111179;28;20047;-64
2021/12/05 06:10:07;;;;;;;19.45;9.57;;;3.90;99.90;;;;;;5110268;28;20055;-65
2021/12/05 06:12:33;;;;;;;24.17;8.48;;;3.90;99.90;;;;;;5127139;28;20059;-63
2021/12/05 06:14:58;;;;;;;21.55;8.30;;;3.90;99.90;;;;;;5127608;28;20048;-64
2021/12/05 06:17:24;;;;;;;20.52;8.75;;;3.90;99.90;;;;;;5111811;28;20040;-64
2021/12/05 06:19:51;;;;;;;20.73;8.85;;;3.90;99.90;;;;;;5111438;28;20046;-64
2021/12/05 06:22:17;;;;;;;21.27;9.48;;;3.90;99.90;;;;;;5110597;28;20047;-63
2021/12/05 06:24:42;;;;;;;17.38;7.80;;;3.90;99.90;;;;;;5111312;28;20070;-65
2021/12/05 06:27:08;;;;;;;19.85;9.23;;;3.90;99.90;;;;;;5110576;28;20481;-63
2021/12/05 06:29:40;;;;;;;20.75;7.78;;;3.90;99.90;;;;;;5111297;28;20043;-64
2021/12/05 06:40:24;;;;;;;15.15;6.20;;;3.90;99.90;;;;;;5130967;27;20754;-64
2021/12/05 06:43:16;;;;;;;17.35;7.40;;;3.80;99.90;;;;;;5114691;28;20050;-64
2021/12/05 06:48:43;;;;;;;14.55;7.22;;;3.80;99.90;;;;;;5071146;28;20176;-63
2021/12/05 06:51:11;;;;;;;16.52;7.32;;;3.80;99.90;;;;;;5100933;28;20059;-63
2021/12/05 06:53:37;;;;;;;18.55;6.43;;;3.80;99.90;;;;;;5113520;28;20063;-64
2021/12/05 06:56:04;;;;;;;19.80;7.55;;;3.80;99.90;;;;;;5130796;27;20043;-64
2021/12/05 06:58:32;;;;;;;16.65;7.40;;;3.80;99.90;;;;;;5113078;28;20408;-64
2021/12/05 07:01:02;;;;;;;15.68;6.93;;;3.80;99.90;;;;;;5114411;28;20048;-64
2021/12/05 07:03:28;;;;;;;19.85;6.60;;;3.80;99.90;;;;;;5114705;28;20047;-63
2021/12/05 07:06:11;;;;;;;16.00;6.90;;;3.70;99.90;;;;;;5114037;28;20043;-64
2021/12/05 07:08:41;;;;;;;18.30;6.65;;;3.70;99.90;;;;;;5114104;27;20055;-63
2021/12/05 07:11:26;;;;;;;15.63;7.15;;;3.70;99.90;;;;;;5113555;28;20082;-63
2021/12/05 07:16:26;;;;;;;17.60;6.07;;;3.70;99.90;;;;;;5113143;28;20051;-64
2021/12/05 07:24:06;;;;;;;17.40;5.93;;;3.70;99.90;;;;;;5113828;28;20083;-63
2021/12/05 07:40:29;;;;;;;16.48;6.88;;;3.70;99.90;;;;;;5112942;28;20317;-64
2021/12/05 07:43:08;;;;;;;21.58;7.50;;;3.70;99.90;;;;;;5113631;28;20047;-63
2021/12/05 07:45:42;;;;;;;20.75;7.22;;;3.70;99.90;;;;;;5112697;28;20051;-63
2021/12/05 07:48:14;;;;;;;20.85;7.38;;;3.70;99.90;;;;;;5112691;28;20135;-63
2021/12/05 07:50:54;;;;;;;23.50;7.10;;;3.80;99.90;;;;;;5112842;28;20489;-63
2021/12/05 07:53:27;;;;;;;16.90;7.07;;;3.70;99.90;;;;;;5113876;28;20093;-63
2021/12/05 07:55:53;;;;;;;13.32;5.80;;;3.70;99.90;;;;;;5113049;28;20043;-64
2021/12/05 08:14:56;;;;;;;14.57;6.18;;;3.70;99.90;;;;;;5126134;27;20043;-64
2021/12/05 08:17:22;;;;;;;18.30;7.20;;;3.80;99.90;;;;;;5113236;28;20047;-63
2021/12/05 08:19:48;;;;;;;14.45;6.80;;;3.70;99.90;;;;;;5111774;28;20385;-64
2021/12/05 08:22:15;;;;;;;13.20;6.88;;;3.70;99.90;;;;;;5112781;28;20058;-63
2021/12/05 08:24:42;;;;;;;13.35;7.10;;;3.70;99.90;;;;;;5112914;27;20100;-63
2021/12/05 08:27:12;;;;;;;19.38;7.57;;;3.70;99.90;;;;;;5112379;28;20078;-63
2021/12/05 08:29:52;;;;;;;15.43;7.13;;;3.80;99.90;;;;;;5111139;28;20126;-63
2021/12/05 08:32:40;;;;;;;18.63;8.50;;;3.80;99.90;;;;;;5112310;28;20547;-63
2021/12/05 08:35:18;;;;;;;17.30;7.03;;;3.80;99.90;;;;;;5112317;28;20427;-64
2021/12/05 09:24:21;;;;;;;21.80;9.80;;;4.30;99.90;;;;;;5126632;27;20047;-62
2021/12/05 09:27:05;;;;;;;14.00;7.90;;;4.40;99.90;;;;;;5112212;28;20052;-63
2021/12/05 10:08:35;;;;;;;17.90;9.07;;;4.10;99.90;;;;;;5087920;28;20048;-61
2021/12/05 10:35:00;;;;;;;19.13;8.65;;;4.00;99.90;;;;;;5114508;28;20052;-60
2021/12/05 10:37:26;;;;;;;18.38;8.77;;;4.00;99.90;;;;;;5114687;28;20043;-61
2021/12/05 10:40:19;;;;;;;16.08;8.48;;;4.00;99.90;;;;;;5113789;28;20465;-61
2021/12/05 10:42:51;;;;;;;26.38;8.30;;;4.00;99.90;;;;;;5114065;28;20054;-62
2021/12/05 10:45:19;;;;;;;14.00;8.27;;;4.10;99.90;;;;;;5114201;28;20047;-63
2021/12/05 10:47:53;;;;;;;15.60;8.57;;;4.10;99.90;;;;;;5130518;27;20105;-62
2021/12/05 10:50:28;;;;;;;20.05;9.77;;;4.10;99.90;;;;;;5113519;28;20044;-62
2021/12/05 10:53:21;;;;;;;16.80;9.10;;;4.10;99.90;;;;;;5114664;28;20341;-61
2021/12/05 10:55:54;;;;;;;23.83;9.27;;;4.10;99.90;;;;;;5114365;28;20077;-64
2021/12/05 10:58:20;;;;;;;22.67;9.73;;;4.20;99.90;;;;;;5129660;27;20192;-61
2021/12/05 11:00:46;;;;;;;15.48;9.63;;;4.20;99.90;;;;;;5130352;27;20051;-63
2021/12/05 11:03:20;;;;;;;18.42;9.13;;;4.20;99.90;;;;;;5114131;28;20577;-62
2021/12/05 11:05:46;;;;;;;20.05;9.75;;;4.20;99.90;;;;;;5114384;27;20048;-64
2021/12/05 11:08:33;;;;;;;15.70;8.77;;;4.20;99.90;;;;;;5113237;28;20044;-63
2021/12/05 11:11:12;;;;;;;19.38;9.15;;;4.20;99.90;;;;;;5113090;28;20100;-62
2021/12/05 11:13:40;;;;;;;16.50;9.48;;;4.20;99.90;;;;;;5113054;28;20124;-63
2021/12/05 11:16:43;;;;;;;18.73;9.77;;;4.30;99.90;;;;;;5112896;28;20056;-62
2021/12/05 11:19:16;;;;;;;20.27;10.10;;;4.30;99.90;;;;;;5113353;28;20040;-63
2021/12/05 11:21:47;;;;;;;16.77;10.35;;;4.30;99.90;;;;;;5095619;28;20086;-64
2021/12/05 11:24:24;;;;;;;21.08;9.27;;;4.30;99.90;;;;;;5112111;28;20051;-62
2021/12/05 11:27:15;;;;;;;18.33;9.60;;;4.40;99.90;;;;;;5112259;28;20044;-62
2021/12/05 11:29:48;;;;;;;19.52;9.98;;;4.40;99.90;;;;;;5106264;28;20059;-63
2021/12/05 11:32:18;;;;;;;18.55;8.90;;;4.40;99.90;;;;;;5113038;28;20167;-63
2021/12/05 11:34:44;;;;;;;15.25;9.23;;;4.40;99.90;;;;;;5113310;28;20047;-63
2021/12/05 11:37:10;;;;;;;20.33;11.27;;;4.40;99.90;;;;;;5111715;28;20043;-61
2021/12/05 11:39:36;;;;;;;20.63;10.75;;;4.50;99.90;;;;;;5113227;28;20043;-62
2021/12/05 11:42:11;;;;;;;23.02;10.57;;;4.50;99.90;;;;;;5113737;28;20044;-62
2021/12/05 11:44:37;;;;;;;26.30;13.23;;;4.50;99.90;;;;;;5113518;28;20489;-62
2021/12/05 11:47:15;;;;;;;24.63;12.75;;;4.50;99.90;;;;;;5113717;27;20043;-62
2021/12/05 11:49:41;;;;;;;19.15;10.95;;;4.60;99.90;;;;;;5113911;28;20395;-62
2021/12/05 11:52:08;;;;;;;18.65;10.82;;;4.60;99.90;;;;;;5113666;28;20382;-62
2021/12/05 11:54:39;;;;;;;17.40;11.13;;;4.60;99.90;;;;;;5113418;28;20404;-63
2021/12/05 11:57:18;;;;;;;19.75;10.25;;;4.70;99.90;;;;;;5113876;28;20104;-62
2021/12/05 11:59:57;;;;;;;16.02;8.93;;;4.80;99.90;;;;;;5112144;28;20054;-62
2021/12/05 12:02:34;;;;;;;17.63;9.48;;;4.80;99.90;;;;;;5113002;28;20051;-64
2021/12/05 12:05:13;;;;;;;17.80;9.77;;;4.80;99.90;;;;;;5095386;28;20084;-62
2021/12/05 12:07:49;;;;;;;16.13;9.30;;;4.90;99.90;;;;;;5113352;28;20050;-63
2021/12/05 12:10:42;;;;;;;21.05;10.63;;;4.90;99.90;;;;;;5112883;28;20378;-62
2021/12/05 12:13:09;;;;;;;16.20;9.02;;;4.90;99.90;;;;;;5113150;28;20449;-67
2021/12/05 12:15:36;;;;;;;23.77;9.90;;;4.90;99.90;;;;;;5113257;28;20039;-63
2021/12/05 12:18:14;;;;;;;21.10;9.98;;;5.00;99.90;;;;;;5113107;28;20050;-62
2021/12/05 12:20:44;;;;;;;17.90;9.73;;;5.00;99.90;;;;;;5112905;28;20382;-62
2021/12/05 12:23:09;;;;;;;15.93;8.45;;;4.90;99.90;;;;;;5111453;28;20083;-63
2021/12/05 12:25:39;;;;;;;16.65;10.13;;;5.00;99.90;;;;;;5112977;28;20075;-62
2021/12/05 12:28:06;;;;;;;15.75;10.25;;;5.10;99.90;;;;;;5112037;28;20052;-62
2021/12/05 12:30:36;;;;;;;21.63;9.55;;;5.00;99.90;;;;;;5111529;28;20048;-62
2021/12/05 12:33:09;;;;;;;16.20;9.02;;;5.00;99.90;;;;;;5112793;28;20134;-63
2021/12/05 12:35:36;;;;;;;11.90;7.43;;;5.00;99.90;;;;;;5112388;28;20047;-63
2021/12/05 12:38:17;;;;;;;16.23;8.50;;;5.10;99.90;;;;;;5111609;28;20040;-64
2021/12/05 12:40:54;;;;;;;19.70;9.45;;;5.10;99.90;;;;;;5112549;28;20147;-61
2021/12/05 12:43:55;;;;;;;20.15;9.60;;;5.20;99.90;;;;;;5112122;28;20391;-63
2021/12/05 12:46:48;;;;;;;16.30;8.63;;;5.10;99.90;;;;;;5111201;28;20043;-62
2021/12/05 12:49:14;;;;;;;13.60;8.02;;;5.20;99.90;;;;;;5110945;28;20103;-63
2021/12/05 12:51:50;;;;;;;14.30;8.27;;;5.20;99.90;;;;;;5112374;28;20051;-61
2021/12/05 12:54:26;;;;;;;17.42;9.05;;;5.20;99.90;;;;;;5112142;28;20039;-62
2021/12/05 12:57:12;;;;;;;18.27;8.88;;;5.30;99.90;;;;;;5112488;28;20043;-62
2021/12/05 12:59:41;;;;;;;15.82;8.95;;;5.30;99.90;;;;;;5112508;28;20086;-64
2021/12/05 13:10:02;;;;;;;17.27;7.93;;;5.10;99.90;;;;;;5112262;28;20051;-61
2021/12/05 13:12:39;;;;;;;18.70;8.18;;;5.10;99.90;;;;;;5110443;28;20047;-62
2021/12/05 13:15:20;;;;;;;12.85;7.05;;;5.20;99.90;;;;;;5112258;28;20105;-62
2021/12/05 13:17:53;;;;;;;22.90;12.70;;;5.20;99.90;;;;;;5112456;28;20257;-61
2021/12/05 13:20:25;;;;;;;21.02;9.57;;;5.10;99.90;;;;;;5111740;28;20047;-61
2021/12/05 13:23:09;;;;;;;14.35;8.20;;;5.20;99.90;;;;;;5111947;28;20046;-62
2021/12/05 13:26:02;;;;;;;15.27;8.02;;;5.20;99.90;;;;;;5111950;28;20047;-63
2021/12/05 13:28:38;;;;;;;18.00;8.30;;;5.20;99.90;;;;;;5111499;28;20125;-63
2021/12/05 13:31:27;;;;;;;19.27;8.05;;;5.20;99.90;;;;;;5110645;28;20327;-63
2021/12/05 13:34:16;;;;;;;15.35;8.23;;;5.30;99.90;;;;;;5101685;28;20051;-63
2021/12/05 13:36:46;;;;;;;11.75;7.90;;;5.30;99.90;;;;;;5110377;28;20124;-63
2021/12/05 13:39:49;;;;;;;15.13;8.52;;;5.30;99.90;;;;;;5111870;28;20040;-64
2021/12/05 13:42:21;;;;;;;22.77;8.82;;;5.30;99.90;;;;;;5111235;28;20572;-63
2021/12/05 13:45:06;;;;;;;17.58;8.07;;;5.30;99.90;;;;;;5110468;28;20051;-62
2021/12/05 13:47:40;;;;;;;10.90;7.38;;;5.30;99.90;;;;;;5115628;28;20039;-62
2021/12/05 13:50:19;;;;;;;13.02;7.00;;;5.30;99.90;;;;;;5115873;28;20111;-62
2021/12/05 13:52:49;;;;;;;13.68;7.55;;;5.30;99.90;;;;;;5114736;28;20426;-62
2021/12/05 13:55:30;;;;;;;19.13;8.60;;;5.30;99.90;;;;;;5115618;28;20047;-62
2021/12/05 13:58:20;;;;;;;16.10;7.35;;;5.20;99.90;;;;;;5115649;28;20056;-62
2021/12/05 14:01:12;;;;;;;12.75;7.47;;;5.20;99.90;;;;;;5115848;28;20404;-63
2021/12/05 14:03:46;;;;;;;16.55;7.47;;;5.20;99.90;;;;;;5106889;28;20066;-62
2021/12/05 14:06:43;;;;;;;13.63;8.25;;;5.20;99.90;;;;;;5115817;28;20044;-63
2021/12/05 14:09:13;;;;;;;16.00;7.90;;;5.20;99.90;;;;;;5115768;28;20130;-62
2021/12/05 14:12:14;;;;;;;15.15;7.95;;;5.20;99.90;;;;;;5113888;28;20035;-62
2021/12/05 14:15:01;;;;;;;14.93;8.55;;;5.20;99.90;;;;;;5111588;27;20134;-62
2021/12/05 14:17:33;;;;;;;15.95;8.07;;;5.20;99.90;;;;;;5114886;28;20503;-61
2021/12/05 14:20:08;;;;;;;15.77;8.02;;;5.20;99.90;;;;;;5115485;28;20255;-62
2021/12/05 14:22:36;;;;;;;16.92;8.63;;;5.20;99.90;;;;;;5114984;28;20054;-61
2021/12/05 14:25:06;;;;;;;18.77;8.93;;;5.10;99.90;;;;;;5115416;28;20089;-63
2021/12/05 14:27:36;;;;;;;15.25;9.38;;;5.10;99.90;;;;;;5115141;28;20051;-63
2021/12/05 14:30:06;;;;;;;18.35;9.73;;;5.00;99.90;;;;;;5114342;28;20060;-63
2021/12/05 14:32:35;;;;;;;17.55;9.52;;;5.00;99.90;;;;;;5113917;28;20532;-63
2021/12/05 14:35:07;;;;;;;16.98;8.93;;;5.00;99.90;;;;;;5115226;28;20053;-63
2021/12/05 14:37:35;;;;;;;12.95;8.52;;;5.00;99.90;;;;;;5114910;28;20435;-62
2021/12/05 14:40:05;;;;;;;17.00;9.35;;;5.00;99.90;;;;;;5113953;28;20047;-63
2021/12/05 14:42:34;;;;;;;17.05;9.88;;;5.00;99.90;;;;;;5113409;28;20051;-62
2021/12/05 14:45:12;;;;;;;17.40;9.50;;;5.00;99.90;;;;;;5113861;28;20051;-63
2021/12/05 14:47:41;;;;;;;16.50;9.80;;;4.90;99.90;;;;;;5112118;28;20043;-63
2021/12/05 14:50:17;;;;;;;19.25;9.55;;;4.90;99.90;;;;;;5129626;27;20043;-64
2021/12/05 14:52:50;;;;;;;25.80;10.27;;;4.90;99.90;;;;;;5095391;28;20047;-63
2021/12/05 14:55:18;;;;;;;20.63;10.13;;;4.90;99.90;;;;;;5113782;28;20055;-62
2021/12/05 14:57:53;;;;;;;17.45;9.23;;;4.90;99.90;;;;;;5093632;28;20101;-62
2021/12/05 15:00:39;;;;;;;19.58;9.63;;;4.90;99.90;;;;;;5112544;28;20044;-64
2021/12/05 15:03:17;;;;;;;18.58;9.18;;;4.80;99.90;;;;;;5113669;28;20536;-63
2021/12/05 15:06:10;;;;;;;20.55;10.15;;;4.80;99.90;;;;;;5112288;28;20055;-62
2021/12/05 15:08:37;;;;;;;19.25;10.20;;;4.80;99.90;;;;;;5108173;28;20512;-62
2021/12/05 15:11:08;;;;;;;19.92;10.05;;;4.80;99.90;;;;;;5113104;28;20280;-63
2021/12/05 15:13:34;;;;;;;16.88;9.40;;;4.80;99.90;;;;;;5112516;28;20048;-63
2021/12/05 15:16:00;;;;;;;15.05;9.60;;;4.80;99.90;;;;;;5113242;28;20108;-62
2021/12/05 15:18:32;;;;;;;19.20;11.20;;;4.80;99.90;;;;;;5113338;28;20040;-62
2021/12/05 15:20:59;;;;;;;20.45;10.93;;;4.80;99.90;;;;;;5129094;27;20055;-64
2021/12/05 15:23:30;;;;;;;18.73;10.90;;;4.80;99.90;;;;;;5113105;28;20048;-62
2021/12/05 15:25:59;;;;;;;19.52;10.30;;;4.70;99.90;;;;;;5109549;28;20055;-61
2021/12/05 15:28:25;;;;;;;22.45;10.77;;;4.70;99.90;;;;;;5095143;28;20051;-62
2021/12/05 15:30:51;;;;;;;18.52;10.07;;;4.70;99.90;;;;;;5111358;28;20400;-63
2021/12/05 15:33:21;;;;;;;17.20;9.73;;;4.70;99.90;;;;;;5127124;27;20149;-65
2021/12/05 15:35:49;;;;;;;17.80;11.00;;;4.70;99.90;;;;;;5110153;27;20036;-63
2021/12/05 15:38:25;;;;;;;20.52;12.38;;;4.60;99.90;;;;;;5109902;28;20040;-65
2021/12/05 15:41:10;;;;;;;21.35;10.65;;;4.70;99.90;;;;;;5110913;28;20055;-61
2021/12/05 15:43:38;;;;;;;21.42;10.70;;;4.60;99.90;;;;;;5111156;28;20047;-63
2021/12/05 15:46:07;;;;;;;18.88;11.70;;;4.70;99.90;;;;;;5109858;28;20127;-62
2021/12/05 15:48:36;;;;;;;25.17;12.50;;;4.60;99.90;;;;;;5110016;28;20074;-62
2021/12/05 15:51:05;;;;;;;24.50;13.15;;;4.60;99.90;;;;;;5110822;28;20040;-63
2021/12/05 15:53:35;;;;;;;21.92;13.88;;;4.60;99.90;;;;;;5108417;28;20499;-65
2021/12/05 15:56:05;;;;;;;21.92;12.23;;;4.50;99.90;;;;;;5112468;28;20089;-62
2021/12/05 15:58:46;;;;;;;22.75;12.90;;;4.50;99.90;;;;;;5110237;28;20063;-63
2021/12/05 16:01:21;;;;;;;23.20;13.52;;;4.50;99.90;;;;;;5109895;28;20039;-65
2021/12/05 16:03:58;;;;;;;26.52;14.55;;;4.50;99.90;;;;;;5111468;28;20059;-64
2021/12/05 16:06:50;;;;;;;24.02;13.13;;;4.50;99.90;;;;;;5111485;28;20136;-64
2021/12/05 16:09:21;;;;;;;22.27;13.48;;;4.50;99.90;;;;;;5107169;28;20048;-63
2021/12/05 16:11:50;;;;;;;25.35;13.07;;;4.50;99.90;;;;;;5109755;28;20039;-63
2021/12/05 16:14:30;;;;;;;24.90;13.85;;;4.40;99.90;;;;;;5111580;27;20047;-63
2021/12/05 16:16:57;;;;;;;23.70;14.70;;;4.40;99.90;;;;;;5111015;28;20039;-64
2021/12/05 16:19:23;;;;;;;23.83;14.27;;;4.40;99.90;;;;;;5110041;28;20613;-66
2021/12/05 16:21:48;;;;;;;26.27;14.85;;;4.40;99.90;;;;;;5110818;28;20118;-63
2021/12/05 16:24:20;;;;;;;23.38;13.98;;;4.40;99.90;;;;;;5109977;28;20213;-63
2021/12/05 16:26:49;;;;;;;30.30;16.25;;;4.30;99.90;;;;;;5110729;28;20437;-63
2021/12/05 16:29:18;;;;;;;24.05;13.00;;;4.30;99.90;;;;;;5109895;28;20043;-62
2021/12/05 16:31:53;;;;;;;22.70;13.65;;;4.30;99.90;;;;;;5109110;28;20047;-68
2021/12/05 16:34:22;;;;;;;28.27;14.93;;;4.20;99.90;;;;;;5110987;28;20058;-65
2021/12/05 16:37:08;;;;;;;23.98;14.30;;;4.40;99.90;;;;;;5109512;28;20287;-65
2021/12/05 16:39:55;;;;;;;23.15;13.35;;;4.20;99.90;;;;;;5112461;28;20051;-63
2021/12/05 16:42:23;;;;;;;23.27;13.90;;;4.20;99.90;;;;;;5095704;28;20104;-63
2021/12/05 16:44:59;;;;;;;23.15;13.63;;;4.20;99.90;;;;;;5112381;28;20081;-62
2021/12/05 16:47:28;;;;;;;26.63;14.52;;;4.20;99.90;;;;;;5111892;28;20039;-63
2021/12/05 16:49:57;;;;;;;24.92;14.95;;;4.20;99.90;;;;;;5111565;28;20047;-66
2021/12/05 16:52:29;;;;;;;24.40;14.13;;;4.20;99.90;;;;;;5111169;28;20147;-62
2021/12/05 16:55:01;;;;;;;28.85;16.13;;;4.20;99.90;;;;;;5109847;28;20095;-63
2021/12/05 16:57:39;;;;;;;25.45;15.25;;;4.10;99.90;;;;;;5109625;28;20123;-66
2021/12/05 17:00:15;;;;;;;24.02;14.95;;;4.20;99.90;;;;;;5109136;28;20062;-62
2021/12/05 17:02:53;;;;;;;26.75;14.43;;;4.10;99.90;;;;;;5110597;28;20062;-61
2021/12/05 17:05:23;;;;;;;22.23;13.25;;;4.10;99.90;;;;;;5111225;28;20504;-63
2021/12/05 17:08:13;;;;;;;23.25;13.10;;;4.10;99.90;;;;;;5112106;28;20062;-65
2021/12/05 17:10:48;;;;;;;22.33;13.52;;;4.10;99.90;;;;;;5111893;28;20181;-62
2021/12/05 17:13:20;;;;;;;22.17;14.23;;;4.00;99.90;;;;;;5127642;27;20131;-62
2021/12/05 17:15:51;;;;;;;23.77;14.15;;;4.00;99.90;;;;;;5110459;28;20052;-62
2021/12/05 17:18:33;;;;;;;26.38;15.32;;;4.00;99.90;;;;;;5111401;28;20054;-66
2021/12/05 17:21:23;;;;;;;27.08;15.68;;;4.00;99.90;;;;;;5111349;28;20123;-64
2021/12/05 17:24:07;;;;;;;25.73;16.23;;;4.00;99.90;;;;;;5110930;28;20137;-64
2021/12/05 17:26:37;;;;;;;26.65;14.50;;;4.00;99.90;;;;;;5111755;28;20484;-63
2021/12/05 17:29:20;;;;;;;22.38;14.25;;;3.90;99.90;;;;;;5110666;28;20043;-63
2021/12/05 17:31:54;;;;;;;25.85;15.38;;;3.90;99.90;;;;;;5111900;28;20055;-64
2021/12/05 17:34:22;;;;;;;26.75;15.82;;;4.00;99.90;;;;;;5110441;28;20044;-68
2021/12/05 17:36:56;;;;;;;24.38;14.65;;;3.90;99.90;;;;;;5110729;28;20492;-63
2021/12/05 17:39:26;;;;;;;22.88;14.82;;;3.90;99.90;;;;;;5111130;28;20039;-67
2021/12/05 17:41:59;;;;;;;26.75;13.18;;;3.90;99.90;;;;;;5110787;28;20044;-66
2021/12/05 17:44:26;;;;;;;22.33;13.07;;;3.90;99.90;;;;;;5110437;28;20053;-68
2021/12/05 17:46:54;;;;;;;22.88;13.40;;;3.90;99.90;;;;;;5110504;28;20044;-66
2021/12/05 17:49:23;;;;;;;21.55;13.77;;;3.90;99.90;;;;;;5109431;28;20058;-63
2021/12/05 17:51:49;;;;;;;22.63;13.48;;;3.90;99.90;;;;;;5109693;28;20058;-66
2021/12/05 17:54:34;;;;;;;30.42;15.85;;;3.90;99.90;;;;;;5109384;28;20044;-64
2021/12/05 17:57:07;;;;;;;24.88;13.93;;;3.90;99.90;;;;;;5109185;28;20510;-67
2021/12/05 17:59:49;;;;;;;22.30;13.55;;;3.90;99.90;;;;;;5110962;28;20052;-64
2021/12/05 18:02:46;;;;;;;24.00;13.88;;;3.80;99.90;;;;;;5109513;28;20066;-64
2021/12/05 18:05:24;;;;;;;22.35;12.80;;;3.80;99.90;;;;;;5109417;28;20153;-64
2021/12/05 18:07:52;;;;;;;25.02;14.15;;;3.80;99.90;;;;;;5110667;28;20048;-68
2021/12/05 18:10:21;;;;;;;20.73;12.50;;;3.80;99.90;;;;;;5109215;28;20044;-64
2021/12/05 18:12:49;;;;;;;18.80;12.57;;;3.80;99.90;;;;;;5109756;28;20055;-66
2021/12/05 18:15:24;;;;;;;20.40;13.02;;;3.70;99.90;;;;;;5109123;28;20511;-68
2021/12/05 18:17:50;;;;;;;18.77;12.05;;;3.70;99.90;;;;;;5108975;28;20122;-66
2021/12/05 18:20:19;;;;;;;19.10;12.60;;;3.70;99.90;;;;;;5109764;28;20173;-65
2021/12/05 18:22:45;;;;;;;18.98;12.43;;;3.60;99.90;;;;;;5109041;28;20040;-64
2021/12/05 18:25:12;;;;;;;22.20;12.82;;;3.50;99.90;;;;;;5108052;28;20181;-63
2021/12/05 18:27:39;;;;;;;19.80;12.88;;;3.50;99.90;;;;;;5107641;28;20134;-64
2021/12/05 18:30:08;;;;;;;20.80;13.60;;;3.50;99.90;;;;;;5107852;28;20055;-64
2021/12/05 18:32:34;;;;;;;20.05;13.15;;;3.50;99.90;;;;;;5109756;28;20055;-66
2021/12/05 18:35:00;;;;;;;23.38;13.05;;;3.50;99.90;;;;;;5112517;28;20043;-63